Sammamish, Washington
Current Conditions -  °F | °C
As of 9:53 AM on Wednesday 28 Jan 2015 (Local Time) from KRNT Reporting Station
Overcast Overcast  
Wind Chill: 47°   Ceiling: 500
Heat Index: 47°   Visibility: 8mi
Dew Point: 45°   Wind: 3mph
Humidity: 93%   Direction: 330°NNW
Pressure: 30.39"   Gusts: NA
Location:  47.63°N, 122.03°W
Report Text: KRNT 281753Z 33003KT 8SM BKN005 OVC035 08/07 A3039 RMK AO2 SLP294 T00830072 10083 20072 53010
Loading
Personal Weather Stations






























Interactive Weather Map New forecast layout! Learn more

10-Day Weather Forecast

Advertisements
Track Severe Weather on mobile